createdAt,value
2022-08-22T00:01:24.795Z,4.68
2022-08-22T00:02:49.791Z,8.93
2022-08-22T00:02:52.695Z,5.63
2022-08-22T00:03:07.955Z,6.90
2022-08-22T00:03:15.349Z,7.25
2022-08-22T00:03:59.284Z,5.90
2022-08-22T00:06:38.299Z,5.60
2022-08-22T00:09:08.534Z,5.90
2022-08-22T00:11:38.779Z,5.30
2022-08-22T00:14:14.187Z,5.22
2022-08-22T00:16:54.614Z,6.53
2022-08-22T00:19:41.946Z,8.68
2022-08-22T00:22:09.126Z,6.10
2022-08-22T00:24:39.254Z,4.47
2022-08-22T00:27:20.217Z,4.95
2022-08-22T00:29:53.401Z,6.00
2022-08-22T00:32:28.212Z,5.50
2022-08-22T00:35:01.281Z,6.10
2022-08-22T00:37:31.476Z,5.32
2022-08-22T00:40:04.553Z,6.65
2022-08-22T00:42:37.767Z,5.30
2022-08-22T00:45:04.953Z,5.90
2022-08-22T00:47:46.519Z,6.05
2022-08-22T00:50:13.686Z,4.78
2022-08-22T00:52:43.541Z,6.65
2022-08-22T00:55:11.452Z,5.60
2022-08-22T00:57:44.366Z,4.45
2022-08-22T01:00:17.312Z,8.23
2022-08-22T01:02:50.427Z,5.68
2022-08-22T01:05:25.632Z,4.90
2022-08-22T01:07:52.797Z,6.47
2022-08-22T01:10:22.775Z,5.78
2022-08-22T01:13:04.001Z,8.20
2022-08-22T01:15:34.113Z,6.30
2022-08-22T01:18:16.572Z,5.03
2022-08-22T01:20:53.360Z,5.50
2022-08-22T01:23:20.471Z,7.32
2022-08-22T01:25:50.949Z,6.55
2022-08-22T01:28:36.631Z,7.55
2022-08-22T01:31:37.299Z,6.10
2022-08-22T01:34:27.491Z,6.65
2022-08-22T01:36:57.723Z,5.88
2022-08-22T01:39:25.701Z,5.45
2022-08-22T01:41:52.878Z,6.50
2022-08-22T01:44:27.962Z,7.70
2022-08-22T01:46:59.421Z,5.63
2022-08-22T01:49:36.118Z,5.03
2022-08-22T01:52:03.335Z,5.72
2022-08-22T01:54:50.755Z,6.38
2022-08-22T01:57:19.305Z,5.07
2022-08-22T01:59:54.974Z,8.43
2022-08-22T02:02:32.099Z,5.40
2022-08-22T02:05:18.565Z,5.43
2022-08-22T02:07:46.173Z,6.20
2022-08-22T02:10:32.151Z,6.57
2022-08-22T02:12:59.301Z,4.53
2022-08-22T02:15:41.629Z,6.88
2022-08-22T02:18:31.443Z,7.22
2022-08-22T02:21:16.439Z,7.55
2022-08-22T02:23:49.455Z,6.57
2022-08-22T02:26:26.386Z,5.60
2022-08-22T02:29:09.238Z,6.70
2022-08-22T02:31:57.202Z,5.68
2022-08-22T02:34:27.219Z,6.22
2022-08-22T02:36:58.124Z,5.43
2022-08-22T02:39:33.775Z,5.60
2022-08-22T02:42:06.998Z,5.32
2022-08-22T02:44:35.836Z,6.13
2022-08-22T02:47:12.459Z,4.88
2022-08-22T02:49:43.947Z,5.32
2022-08-22T02:52:11.305Z,4.82
2022-08-22T02:54:42.518Z,5.82
2022-08-22T02:57:29.906Z,8.35
2022-08-22T03:00:30.836Z,4.78
2022-08-22T03:03:14.711Z,9.52
2022-08-22T03:05:48.190Z,5.88
2022-08-22T03:08:32.370Z,5.13
2022-08-22T03:11:05.216Z,5.78
2022-08-22T03:13:46.857Z,5.43
2022-08-22T03:16:17.067Z,6.68
2022-08-22T03:18:48.562Z,5.07
2022-08-22T03:21:25.400Z,4.43
2022-08-22T03:23:57.982Z,5.00
2022-08-22T03:26:30.811Z,5.68
2022-08-22T03:29:02.943Z,5.43
2022-08-22T03:31:30.923Z,5.97
2022-08-22T03:34:16.456Z,7.55
2022-08-22T03:37:09.623Z,4.95
2022-08-22T03:39:52.256Z,5.15
2022-08-22T03:42:22.502Z,4.72
2022-08-22T03:45:07.703Z,8.77
2022-08-22T03:47:40.974Z,5.45
2022-08-22T03:50:24.327Z,6.00
2022-08-22T03:53:18.877Z,4.70
2022-08-22T03:56:05.302Z,4.80
2022-08-22T03:58:57.474Z,6.07
2022-08-22T04:01:36.769Z,5.50
2022-08-22T04:04:09.963Z,8.63
2022-08-22T04:06:49.439Z,6.90
2022-08-22T04:09:20.754Z,5.43
2022-08-22T04:11:51.303Z,4.72
2022-08-22T04:14:36.897Z,5.75
2022-08-22T04:17:25.625Z,5.95
2022-08-22T04:20:02.031Z,7.18
2022-08-22T04:22:29.163Z,6.57
2022-08-22T04:25:03.584Z,6.32
2022-08-22T04:27:55.732Z,4.88
2022-08-22T04:30:32.913Z,7.03
2022-08-22T04:33:04.683Z,5.78
2022-08-22T04:35:31.879Z,4.60
2022-08-22T04:37:59.142Z,5.53
2022-08-22T04:40:26.475Z,5.90
2022-08-22T04:43:08.460Z,4.90
2022-08-22T04:45:38.400Z,6.43
2022-08-22T04:48:05.559Z,5.75
2022-08-22T04:50:38.009Z,6.05
2022-08-22T04:53:15.252Z,5.70
2022-08-22T04:56:07.311Z,5.72
2022-08-22T04:58:49.143Z,6.25
2022-08-22T05:01:18.802Z,5.10
2022-08-22T05:03:50.954Z,5.40
2022-08-22T05:06:19.770Z,7.20
2022-08-22T05:08:53.779Z,8.32
2022-08-22T05:11:22.992Z,5.80
2022-08-22T05:13:57.730Z,8.88
2022-08-22T05:16:27.859Z,6.13
2022-08-22T05:18:58.675Z,6.25
2022-08-22T05:21:29.095Z,7.20
2022-08-22T05:23:59.862Z,5.20
2022-08-22T05:26:28.054Z,8.55
2022-08-22T05:28:58.762Z,5.47
2022-08-22T05:31:28.251Z,5.38
2022-08-22T05:33:59.779Z,7.75
2022-08-22T05:36:28.651Z,6.85
2022-08-22T05:38:58.474Z,5.00
2022-08-22T05:41:28.908Z,7.60
2022-08-22T05:43:56.145Z,6.93
2022-08-22T05:46:38.207Z,6.65
2022-08-22T05:49:05.746Z,6.53
2022-08-22T05:51:40.370Z,5.65
2022-08-22T05:54:14.423Z,6.20
2022-08-22T05:56:46.937Z,6.17
2022-08-22T05:59:14.507Z,6.97
2022-08-22T06:01:54.923Z,5.72
2022-08-22T06:04:28.135Z,7.38
2022-08-22T06:06:55.259Z,6.68
2022-08-22T06:09:35.675Z,6.13
2022-08-22T06:12:02.943Z,7.32
2022-08-22T06:14:33.851Z,8.20
2022-08-22T06:17:05.387Z,7.18
2022-08-22T06:19:36.103Z,10.90
2022-08-22T06:22:03.747Z,7.63
2022-08-22T06:24:32.898Z,7.15
2022-08-22T06:27:04.679Z,8.38
2022-08-22T06:29:37.302Z,6.68
2022-08-22T06:32:12.021Z,8.10
2022-08-22T06:34:41.587Z,9.10
2022-08-22T06:37:11.210Z,8.02
2022-08-22T06:39:43.609Z,12.90
2022-08-22T06:42:16.738Z,7.97
2022-08-22T06:44:44.179Z,10.13
2022-08-22T06:47:17.025Z,8.75
2022-08-22T06:49:45.746Z,12.73
2022-08-22T06:52:14.795Z,8.95
2022-08-22T06:54:45.436Z,8.73
2022-08-22T06:57:31.062Z,10.80
2022-08-22T06:59:59.879Z,9.48
2022-08-22T07:02:31.331Z,8.73
2022-08-22T07:04:58.703Z,11.77
2022-08-22T07:07:27.335Z,11.18
2022-08-22T07:09:56.439Z,9.07
2022-08-22T07:12:35.638Z,9.55
2022-08-22T07:15:10.771Z,8.90
2022-08-22T07:17:47.219Z,11.00
2022-08-22T07:20:18.074Z,9.00
2022-08-22T07:22:54.432Z,9.18
2022-08-22T07:25:23.045Z,8.10
2022-08-22T07:28:00.295Z,7.15
2022-08-22T07:30:35.438Z,8.32
2022-08-22T07:33:26.047Z,7.80
2022-08-22T07:35:59.430Z,7.07
2022-08-22T07:38:26.703Z,6.13
2022-08-22T07:40:56.700Z,8.15
2022-08-22T07:43:26.570Z,5.43
2022-08-22T07:45:56.467Z,6.70
2022-08-22T07:48:27.424Z,3.95
2022-08-22T07:51:00.947Z,4.35
2022-08-22T07:53:30.891Z,4.50
2022-08-22T07:55:59.801Z,4.97
2022-08-22T07:58:29.038Z,3.67
2022-08-22T08:00:57.287Z,3.97
2022-08-22T08:03:25.424Z,5.30
2022-08-22T08:05:53.789Z,3.75
2022-08-22T08:08:23.105Z,4.85
2022-08-22T08:10:50.862Z,3.53
2022-08-22T08:13:27.568Z,4.50
2022-08-22T08:15:54.784Z,4.20
2022-08-22T08:18:25.766Z,4.15
2022-08-22T08:20:56.671Z,3.35
2022-08-22T08:23:25.175Z,3.35
2022-08-22T08:25:58.391Z,5.53
2022-08-22T08:28:35.078Z,4.57
2022-08-22T08:31:11.609Z,3.05
2022-08-22T08:33:40.765Z,4.38
2022-08-22T08:36:13.235Z,3.78
2022-08-22T08:38:49.912Z,3.55
2022-08-22T08:41:39.819Z,3.58
2022-08-22T08:44:10.068Z,5.95
2022-08-22T08:46:57.388Z,4.88
2022-08-22T08:49:43.258Z,6.63
2022-08-22T08:52:29.292Z,4.63
2022-08-22T08:55:22.882Z,4.75
2022-08-22T08:58:10.305Z,5.05
2022-08-22T09:00:43.379Z,4.78
2022-08-22T09:06:34.438Z,3.67
2022-08-22T09:09:11.755Z,4.75
2022-08-22T09:11:46.369Z,4.43
2022-08-22T09:14:28.413Z,5.70
2022-08-22T09:17:14.524Z,3.33
2022-08-22T09:19:47.731Z,3.70
2022-08-22T09:22:21.288Z,2.60
2022-08-22T09:25:06.345Z,2.08
2022-08-22T09:27:46.207Z,4.75
2022-08-22T09:30:15.570Z,2.45
2022-08-22T09:32:48.950Z,2.88
2022-08-22T09:35:35.025Z,1.98
2022-08-22T09:38:02.178Z,2.65
2022-08-22T09:40:32.220Z,3.33
2022-08-22T09:43:02.706Z,2.08
2022-08-22T09:45:41.095Z,2.97
2022-08-22T09:48:13.403Z,2.55
2022-08-22T09:50:43.419Z,3.72
2022-08-22T09:53:10.914Z,3.28
2022-08-22T09:56:15.819Z,3.53
2022-08-22T09:59:01.697Z,2.65
2022-08-22T10:01:35.291Z,3.20
2022-08-22T10:04:21.425Z,2.83
2022-08-22T10:07:11.172Z,2.58
2022-08-22T10:09:57.547Z,2.58
2022-08-22T10:12:35.151Z,2.40
2022-08-22T10:15:04.218Z,3.42
2022-08-22T10:17:41.114Z,3.15
2022-08-22T10:20:27.891Z,2.65
2022-08-22T10:22:55.028Z,4.60
2022-08-22T10:25:23.881Z,3.40
2022-08-22T10:27:54.569Z,2.75
2022-08-22T10:30:27.669Z,4.47
2022-08-22T10:33:08.944Z,6.13
2022-08-22T10:35:51.558Z,3.92
2022-08-22T10:38:32.335Z,3.17
2022-08-22T10:41:03.183Z,6.05
2022-08-22T10:43:44.900Z,5.93
2022-08-22T10:46:23.575Z,3.75
2022-08-22T10:48:50.926Z,3.95
2022-08-22T10:51:29.678Z,4.63
2022-08-22T10:53:56.887Z,2.63
2022-08-22T10:56:27.673Z,2.65
2022-08-22T10:59:13.688Z,4.35
2022-08-22T11:01:46.009Z,5.55
2022-08-22T11:04:18.346Z,3.45
2022-08-22T11:06:47.793Z,2.92
2022-08-22T11:09:37.534Z,4.18
2022-08-22T11:12:08.659Z,4.55
2022-08-22T11:15:00.382Z,3.53
2022-08-22T11:17:33.232Z,5.73
2022-08-22T11:20:14.862Z,4.65
2022-08-22T11:22:41.988Z,3.65
2022-08-22T11:25:41.093Z,5.10
2022-08-22T11:28:33.395Z,3.72
2022-08-22T11:31:19.889Z,5.75
2022-08-22T11:34:00.803Z,9.93
2022-08-22T11:36:30.975Z,4.70
2022-08-22T11:39:01.929Z,2.63
2022-08-22T11:41:36.872Z,3.60
2022-08-22T11:44:30.543Z,3.90
2022-08-22T11:46:59.916Z,3.58
2022-08-22T11:49:39.822Z,3.55
2022-08-22T11:52:13.823Z,2.97
2022-08-22T11:54:51.676Z,3.03
2022-08-22T11:57:25.588Z,5.70
2022-08-22T11:59:56.391Z,2.38
2022-08-22T12:02:47.415Z,2.42
2022-08-22T12:05:26.469Z,6.78
2022-08-22T12:07:57.158Z,2.80
2022-08-22T12:10:31.898Z,4.15
2022-08-22T12:13:01.333Z,3.17
2022-08-22T12:15:33.482Z,4.45
2022-08-22T12:18:21.279Z,3.40
2022-08-22T12:20:57.262Z,6.82
2022-08-22T12:23:43.421Z,2.33
2022-08-22T12:26:25.910Z,4.15
2022-08-22T12:29:02.523Z,2.88
2022-08-22T12:31:48.390Z,3.05
2022-08-22T12:34:35.868Z,2.55
2022-08-22T12:37:15.721Z,2.80
2022-08-22T12:40:09.036Z,5.57
2022-08-22T12:43:06.571Z,2.67
2022-08-22T12:45:33.795Z,2.60
2022-08-22T12:48:19.038Z,3.45
2022-08-22T12:50:46.260Z,4.45
2022-08-22T12:53:25.757Z,3.05
2022-08-22T12:56:10.747Z,3.38
2022-08-22T12:58:51.290Z,3.78
2022-08-22T13:01:19.346Z,2.90
2022-08-22T13:04:01.725Z,5.57
2022-08-22T13:06:36.182Z,3.22
2022-08-22T13:11:37.395Z,3.10
2022-08-22T13:14:04.795Z,3.80
2022-08-22T13:16:37.043Z,3.00
2022-08-22T13:19:13.680Z,5.80
2022-08-22T13:21:45.432Z,2.17
2022-08-22T13:24:22.554Z,3.15
2022-08-22T13:26:54.027Z,5.15
2022-08-22T13:29:26.024Z,2.13
2022-08-22T13:31:58.999Z,3.97
2022-08-22T13:34:43.574Z,3.20
2022-08-22T13:37:16.979Z,3.05
2022-08-22T13:39:45.992Z,11.77
2022-08-22T13:42:27.679Z,2.20
2022-08-22T13:44:59.075Z,8.40
2022-08-22T13:47:31.792Z,2.80
2022-08-22T13:50:05.151Z,2.40
2022-08-22T13:52:39.635Z,1.95
2022-08-22T13:55:18.536Z,3.67
2022-08-22T13:57:51.758Z,4.72
2022-08-22T14:00:27.432Z,4.05
2022-08-22T14:03:07.959Z,3.17
2022-08-22T14:05:41.064Z,3.72
2022-08-22T14:08:14.437Z,3.22
2022-08-22T14:10:45.529Z,4.82
2022-08-22T14:13:12.812Z,3.17
2022-08-22T14:15:45.262Z,4.35
2022-08-22T14:18:21.255Z,3.10
2022-08-22T14:21:16.389Z,2.13
2022-08-22T14:23:44.375Z,2.95
2022-08-22T14:26:23.602Z,2.70
2022-08-22T14:29:01.758Z,4.97
2022-08-22T14:31:30.175Z,3.20
2022-08-22T14:33:57.998Z,3.47
2022-08-22T14:36:29.664Z,1.80
2022-08-22T14:39:01.253Z,5.10
2022-08-22T14:41:52.926Z,2.85
2022-08-22T14:44:22.331Z,2.58
2022-08-22T14:46:52.707Z,3.83
2022-08-22T14:49:20.798Z,3.88
2022-08-22T14:51:55.171Z,2.83
2022-08-22T14:54:23.303Z,4.22
2022-08-22T14:56:56.830Z,1.98
2022-08-22T14:59:35.781Z,3.70
2022-08-22T15:02:08.223Z,3.33
2022-08-22T15:04:38.765Z,3.45
2022-08-22T15:07:06.458Z,3.97
2022-08-22T15:09:40.782Z,2.75
2022-08-22T15:12:21.303Z,3.50
2022-08-22T15:14:52.482Z,4.63
2022-08-22T15:17:33.869Z,3.35
2022-08-22T15:20:28.585Z,2.88
2022-08-22T15:22:58.012Z,4.57
2022-08-22T15:25:29.830Z,4.25
2022-08-22T15:28:05.282Z,2.40
2022-08-22T15:30:32.906Z,3.70
2022-08-22T15:33:09.373Z,7.13
2022-08-22T15:35:40.218Z,5.45
2022-08-22T15:38:26.326Z,2.80
2022-08-22T15:40:55.578Z,4.70
2022-08-22T15:43:34.850Z,2.22
2022-08-22T15:46:18.323Z,3.40
2022-08-22T15:48:55.537Z,2.13
2022-08-22T15:51:38.468Z,2.80
2022-08-22T15:54:24.868Z,6.07
2022-08-22T15:56:52.795Z,3.58
2022-08-22T15:59:26.100Z,4.18
2022-08-22T16:02:06.408Z,3.25
2022-08-22T16:04:49.353Z,3.28
2022-08-22T16:07:35.377Z,3.70
2022-08-22T16:10:06.377Z,3.45
2022-08-22T16:12:36.738Z,3.17
2022-08-22T16:15:05.565Z,4.13
2022-08-22T16:17:41.159Z,4.88
2022-08-22T16:20:09.116Z,2.15
2022-08-22T16:22:56.395Z,3.13
2022-08-22T16:25:42.141Z,3.55
2022-08-22T16:28:31.675Z,3.92
2022-08-22T16:31:19.387Z,2.40
2022-08-22T16:33:47.255Z,2.88
2022-08-22T16:36:20.651Z,4.40
2022-08-22T16:38:50.061Z,2.15
2022-08-22T16:41:28.955Z,4.43
2022-08-22T16:44:14.341Z,2.88
2022-08-22T16:46:45.658Z,2.97
2022-08-22T16:49:23.994Z,3.25
2022-08-22T16:52:14.252Z,13.25
2022-08-22T16:54:43.779Z,6.45
2022-08-22T16:57:18.539Z,1.60
2022-08-22T16:59:54.826Z,3.38
2022-08-22T17:02:33.207Z,3.58
2022-08-22T17:05:19.159Z,1.70
2022-08-22T17:07:58.737Z,1.85
2022-08-22T17:10:39.330Z,3.30
2022-08-22T17:13:09.347Z,1.52
2022-08-22T17:15:55.126Z,3.17
2022-08-22T17:18:22.233Z,2.97
2022-08-22T17:20:55.335Z,2.63
2022-08-22T17:23:30.814Z,2.63
2022-08-22T17:26:10.122Z,1.55
2022-08-22T17:28:55.911Z,1.33
2022-08-22T17:31:32.860Z,2.20
2022-08-22T17:34:09.098Z,2.15
2022-08-22T17:36:55.092Z,1.80
2022-08-22T17:39:22.204Z,3.70
2022-08-22T17:42:03.235Z,3.92
2022-08-22T17:44:39.570Z,2.10
2022-08-22T17:47:08.995Z,2.58
2022-08-22T17:49:48.443Z,1.15
2022-08-22T17:52:29.490Z,3.80
2022-08-22T17:55:00.281Z,1.48
2022-08-22T18:00:35.427Z,4.28
2022-08-22T18:05:32.739Z,1.48
2022-08-22T18:08:08.975Z,3.17
2022-08-22T18:10:39.778Z,5.25
2022-08-22T18:13:14.476Z,4.45
2022-08-22T18:15:45.783Z,1.23
2022-08-22T18:18:28.157Z,4.25
2022-08-22T18:20:57.245Z,3.55
2022-08-22T18:23:36.014Z,7.03
2022-08-22T18:26:25.601Z,2.08
2022-08-22T18:28:57.334Z,2.55
2022-08-22T18:31:34.183Z,2.70
2022-08-22T18:34:14.079Z,1.83
2022-08-22T18:36:48.303Z,2.70
2022-08-22T18:39:20.407Z,2.50
2022-08-22T18:42:00.402Z,3.03
2022-08-22T18:44:34.306Z,1.63
2022-08-22T18:47:10.638Z,2.25
2022-08-22T18:49:40.210Z,2.25
2022-08-22T18:52:07.342Z,3.53
2022-08-22T18:54:37.304Z,2.30
2022-08-22T18:57:23.733Z,2.40
2022-08-22T18:59:53.894Z,2.45
2022-08-22T19:02:21.018Z,2.80
2022-08-22T19:04:54.210Z,1.83
2022-08-22T19:07:24.351Z,3.60
2022-08-22T19:09:57.808Z,1.92
2022-08-22T19:12:25.010Z,3.55
2022-08-22T19:15:12.375Z,2.28
2022-08-22T19:17:58.926Z,2.67
2022-08-22T19:20:47.334Z,4.95
2022-08-22T19:23:32.749Z,2.38
2022-08-22T19:26:18.750Z,1.70
2022-08-22T19:28:45.918Z,3.25
2022-08-22T19:31:22.567Z,1.95
2022-08-22T19:34:09.692Z,2.33
2022-08-22T19:36:36.875Z,2.15
2022-08-22T19:39:09.221Z,3.72
2022-08-22T19:41:53.144Z,4.00
2022-08-22T19:44:20.251Z,3.15
2022-08-22T19:46:58.122Z,2.63
2022-08-22T19:49:30.747Z,2.47
2022-08-22T19:52:21.238Z,3.42
2022-08-22T19:54:48.370Z,2.22
2022-08-22T19:57:34.063Z,1.98
2022-08-22T20:00:06.789Z,2.65
2022-08-22T20:02:40.193Z,2.08
2022-08-22T20:05:13.209Z,2.00
2022-08-22T20:07:59.159Z,3.55
2022-08-22T20:10:26.251Z,4.43
2022-08-22T20:13:04.084Z,3.40
2022-08-22T20:15:34.141Z,3.58
2022-08-22T20:21:00.353Z,2.63
2022-08-22T20:23:30.318Z,3.40
2022-08-22T20:25:58.186Z,3.33
2022-08-22T20:28:25.363Z,2.83
2022-08-22T20:30:56.314Z,2.65
2022-08-22T20:33:27.403Z,3.35
2022-08-22T20:35:59.015Z,2.78
2022-08-22T20:38:38.072Z,3.17
2022-08-22T20:41:24.151Z,3.47
2022-08-22T20:43:53.923Z,2.50
2022-08-22T20:46:44.369Z,3.22
2022-08-22T20:49:21.223Z,3.53
2022-08-22T20:51:53.546Z,2.45
2022-08-22T20:54:23.934Z,2.28
2022-08-22T20:56:53.917Z,3.33
2022-08-22T20:59:27.483Z,3.63
2022-08-22T21:02:03.814Z,2.58
2022-08-22T21:04:42.552Z,3.00
2022-08-22T21:07:10.105Z,4.38
2022-08-22T21:09:55.780Z,5.05
2022-08-22T21:12:24.086Z,3.20
2022-08-22T21:14:51.242Z,3.85
2022-08-22T21:17:19.578Z,3.35
2022-08-22T21:19:46.727Z,3.47
2022-08-22T21:22:34.125Z,4.13
2022-08-22T21:25:01.414Z,3.83
2022-08-22T21:27:33.029Z,4.07
2022-08-22T21:30:01.194Z,5.05
2022-08-22T21:32:52.292Z,4.32
2022-08-22T21:35:22.305Z,4.75
2022-08-22T21:37:49.484Z,4.35
2022-08-22T21:40:42.966Z,3.88
2022-08-22T21:43:11.492Z,4.45
2022-08-22T21:45:38.602Z,4.90
2022-08-22T21:48:35.263Z,3.35
2022-08-22T21:51:20.921Z,3.08
2022-08-22T21:53:48.226Z,3.40
2022-08-22T21:56:29.372Z,3.42
2022-08-22T21:59:15.340Z,3.35
2022-08-22T22:01:42.853Z,3.38
2022-08-22T22:04:13.267Z,4.40
2022-08-22T22:06:40.467Z,3.97
2022-08-22T22:09:10.897Z,4.20
2022-08-22T22:11:40.668Z,5.15
2022-08-22T22:14:07.835Z,3.30
2022-08-22T22:16:35.271Z,4.65
2022-08-22T22:19:02.468Z,2.83
2022-08-22T22:21:29.619Z,3.72
2022-08-22T22:23:58.483Z,3.05
2022-08-22T22:26:26.653Z,4.45
2022-08-22T22:28:53.857Z,3.00
2022-08-22T22:31:20.969Z,3.92
2022-08-22T22:33:48.146Z,3.03
2022-08-22T22:36:23.653Z,3.30
2022-08-22T22:38:52.010Z,4.13
2022-08-22T22:41:20.232Z,4.70
2022-08-22T22:43:47.387Z,4.25
2022-08-22T22:46:14.544Z,3.72
2022-08-22T22:48:41.693Z,4.13
2022-08-22T22:51:09.682Z,3.40
2022-08-22T22:53:40.428Z,3.17
2022-08-22T22:56:11.210Z,3.63
2022-08-22T22:58:38.823Z,3.85
2022-08-22T23:01:09.245Z,3.35
2022-08-22T23:03:36.442Z,3.15
2022-08-22T23:06:03.634Z,5.38
2022-08-22T23:08:30.827Z,5.38
2022-08-22T23:10:58.288Z,4.13
2022-08-22T23:13:25.432Z,5.70
2022-08-22T23:15:53.590Z,4.93
2022-08-22T23:18:20.922Z,3.72
2022-08-22T23:20:53.890Z,6.10
2022-08-22T23:23:21.034Z,5.03
2022-08-22T23:25:48.228Z,4.18
2022-08-22T23:28:15.397Z,3.80
2022-08-22T23:30:42.546Z,3.30
2022-08-22T23:33:09.721Z,2.97
2022-08-22T23:35:36.938Z,3.60
2022-08-22T23:38:04.071Z,4.57
2022-08-22T23:40:31.214Z,5.20
2022-08-22T23:42:59.295Z,4.57
2022-08-22T23:45:26.803Z,3.85
2022-08-22T23:47:53.959Z,4.07
2022-08-22T23:50:21.149Z,4.65
2022-08-22T23:52:48.411Z,3.95
2022-08-22T23:55:15.600Z,4.35
2022-08-22T23:57:42.758Z,5.35
